This is the latest recevied weather packets stored in our database for station/object SA5VCC-15. If no packets are shown the sender has not sent any weather packets the latest 10 day(s).
| Time | Temp. | Humidity | Pressure | Rain* | Wind** | Luminosity | Snow |
|---|---|---|---|---|---|---|---|
| 1777860350 | 5.56° C | 81% | 1001.8 hPa | - | - | - | - |
| 1777857795 | 5° C | 80% | 1002.3 hPa | - | - | - | - |
| 1777856522 | 5° C | 80% | 1002.5 hPa | - | - | - | - |
| 1777855240 | 5° C | 80% | 1002.8 hPa | - | - | - | - |
| 1777853957 | 5° C | 79% | 1002.8 hPa | - | - | - | - |
| 1777852674 | 5° C | 79% | 1002.9 hPa | - | - | - | - |
| 1777851402 | 4.44° C | 80% | 1003.3 hPa | - | - | - | - |
| 1777850130 | 3.89° C | 82% | 1003.3 hPa | - | - | - | - |
| 1777848845 | 3.89° C | 80% | 1003.5 hPa | - | - | - | - |
| 1777846290 | 5° C | 76% | 1003.6 hPa | - | - | - | - |
| 1777845018 | 5° C | 74% | 1003.8 hPa | - | - | - | - |
| 1777843746 | 6.11° C | 72% | 1004.2 hPa | - | - | - | - |
| 1777842464 | 5.56° C | 73% | 1004.1 hPa | - | - | - | - |
| 1777841181 | 5.56° C | 73% | 1004.3 hPa | - | - | - | - |
| 1777839897 | 5.56° C | 71% | 1004.3 hPa | - | - | - | - |
| 1777838625 | 6.67° C | 67% | 1004.5 hPa | - | - | - | - |
| 1777837343 | 7.22° C | 64% | 1004.7 hPa | - | - | - | - |
| 1777836071 | 7.22° C | 63% | 1004.9 hPa | - | - | - | - |
| 1777834799 | 7.22° C | 61% | 1005 hPa | - | - | - | - |
| 1777833527 | 7.78° C | 59% | 1005 hPa | - | - | - | - |
| 1777832255 | 16.67° C | 37% | 1004.7 hPa | - | - | - | - |
| 1777831520 | 20° C | 33% | 1004.7 hPa | - | - | - | - |
| 1777831460 | 19.44° C | 33% | 1004.6 hPa | - | - | - | - |
| 1777831419 | 19.44° C | 34% | 1004.6 hPa | - | - | - | - |
| 1777831375 | 19.44° C | 34% | 1004.6 hPa | - | - | - | - |
* Rain since midnight (hover to see other rain measurements)
** Current wind speed in m/s (hover to see current wind gust speed)